Time;durP1;ratioP1;P1;durP2;ratioP2;P2;SDS_P1;SDS_P2;PMS_P1;PMS_P2;Temp;Humidity;BMP_temperature;BMP_pressure;BME280_temperature;BME280_humidity;BME280_pressure;Samples;Min_cycle;Max_cycle;Signal;HPM_P1;HPM_P2
2021/08/30 00:00:42;;;;;;;9.25;3.70;;;13.90;99.90;;;;;;4883486;29;20045;-89
2021/08/30 00:03:08;;;;;;;5.60;4.18;;;13.90;99.90;;;;;;4883619;29;20020;-90
2021/08/30 00:05:33;;;;;;;6.28;4.18;;;13.90;99.90;;;;;;4883840;29;20029;-89
2021/08/30 00:08:02;;;;;;;8.52;3.63;;;13.80;99.90;;;;;;4883444;29;20028;-89
2021/08/30 00:10:28;;;;;;;7.55;3.80;;;13.90;99.90;;;;;;4883480;29;20025;-90
2021/08/30 00:12:53;;;;;;;7.57;3.25;;;13.90;99.90;;;;;;4883471;29;20052;-89
2021/08/30 00:15:20;;;;;;;4.53;3.13;;;13.90;99.90;;;;;;4883988;29;20024;-89
2021/08/30 00:17:50;;;;;;;6.03;3.53;;;13.80;99.90;;;;;;4883704;29;20491;-89
2021/08/30 00:20:21;;;;;;;7.10;3.78;;;13.80;99.90;;;;;;4883216;29;20072;-89
2021/08/30 00:22:51;;;;;;;5.65;3.03;;;13.80;99.90;;;;;;4883632;29;20052;-89
2021/08/30 00:25:20;;;;;;;12.65;3.58;;;13.80;99.90;;;;;;4883263;29;20036;-89
2021/08/30 00:27:45;;;;;;;5.57;3.30;;;13.80;99.90;;;;;;4883124;29;20029;-89
2021/08/30 00:30:11;;;;;;;5.85;3.50;;;13.70;99.90;;;;;;4883142;29;20057;-89
2021/08/30 00:32:37;;;;;;;8.73;3.15;;;13.70;99.90;;;;;;4883117;29;20048;-89
2021/08/30 00:35:04;;;;;;;6.40;3.00;;;13.70;99.90;;;;;;4883168;29;20503;-90
2021/08/30 00:37:37;;;;;;;4.68;3.33;;;13.70;99.90;;;;;;4883194;29;20494;-89
2021/08/30 00:40:05;;;;;;;5.18;3.30;;;13.60;99.90;;;;;;4883187;29;20036;-89
2021/08/30 00:42:31;;;;;;;6.88;3.55;;;13.60;99.90;;;;;;4882944;29;20025;-88
2021/08/30 00:44:56;;;;;;;8.68;3.47;;;13.60;99.90;;;;;;4882935;29;20032;-88
2021/08/30 00:47:23;;;;;;;8.93;3.55;;;13.60;99.90;;;;;;4883251;29;20519;-89
2021/08/30 00:49:50;;;;;;;8.38;3.25;;;13.60;99.90;;;;;;4883075;29;20029;-88
2021/08/30 00:52:16;;;;;;;11.13;3.85;;;13.60;99.90;;;;;;4899245;29;20036;-88
2021/08/30 00:54:42;;;;;;;12.43;3.92;;;13.60;99.90;;;;;;4882787;29;20024;-88
2021/08/30 00:57:09;;;;;;;7.43;4.25;;;13.50;99.90;;;;;;4882654;29;20031;-89
2021/08/30 00:59:38;;;;;;;7.85;3.58;;;13.50;99.90;;;;;;4882405;29;20551;-88
2021/08/30 01:02:05;;;;;;;10.27;4.35;;;13.50;99.90;;;;;;4882653;29;20402;-88
2021/08/30 01:04:30;;;;;;;7.20;4.65;;;13.50;99.90;;;;;;4882354;29;20084;-88
2021/08/30 01:07:12;;;;;;;9.95;3.67;;;13.50;99.90;;;;;;4882517;29;20028;-88
2021/08/30 01:09:53;;;;;;;5.75;3.65;;;13.50;99.90;;;;;;4898504;29;20032;-88
2021/08/30 01:12:43;;;;;;;12.27;4.15;;;13.50;99.90;;;;;;4883161;29;20116;-88
2021/08/30 01:15:26;;;;;;;8.27;3.90;;;13.50;99.90;;;;;;4884203;29;20081;-88
2021/08/30 01:17:53;;;;;;;8.25;4.10;;;13.50;99.90;;;;;;4884943;29;20479;-88
2021/08/30 01:20:46;;;;;;;8.50;4.20;;;13.50;99.90;;;;;;4893290;29;20040;-88
2021/08/30 01:23:14;;;;;;;8.80;4.50;;;13.50;99.90;;;;;;4898108;29;20012;-89
2021/08/30 01:25:39;;;;;;;7.93;4.05;;;13.40;99.90;;;;;;4900510;29;20032;-88
2021/08/30 01:28:07;;;;;;;7.82;4.38;;;13.40;99.90;;;;;;4903173;29;20040;-89
2021/08/30 01:30:36;;;;;;;12.80;4.78;;;13.40;99.90;;;;;;4903970;29;20048;-88
2021/08/30 01:33:04;;;;;;;11.20;4.53;;;13.40;99.90;;;;;;4882040;29;20025;-87
2021/08/30 01:35:31;;;;;;;7.13;4.45;;;13.40;99.90;;;;;;4882308;29;20024;-88
2021/08/30 01:38:05;;;;;;;7.05;4.72;;;13.40;99.90;;;;;;4882807;29;20115;-89
2021/08/30 01:40:31;;;;;;;8.48;4.38;;;13.40;99.90;;;;;;4899331;29;20029;-89
2021/08/30 01:42:59;;;;;;;10.60;3.92;;;13.40;99.90;;;;;;4882853;29;20043;-89
2021/08/30 01:45:27;;;;;;;5.72;3.58;;;13.40;99.90;;;;;;4882917;29;20032;-88
2021/08/30 01:47:56;;;;;;;7.25;3.97;;;13.40;99.90;;;;;;4882207;29;20029;-88
2021/08/30 01:50:23;;;;;;;9.43;4.38;;;13.40;99.90;;;;;;4882754;29;20024;-89
2021/08/30 01:52:51;;;;;;;7.25;4.38;;;13.40;99.90;;;;;;4882421;29;20048;-89
2021/08/30 01:55:38;;;;;;;11.90;4.40;;;13.40;99.90;;;;;;4882206;29;20036;-89
2021/08/30 02:00:43;;;;;;;9.95;3.83;;;13.30;99.90;;;;;;4898941;29;20089;-89
2021/08/30 02:03:31;;;;;;;7.70;3.67;;;13.30;99.90;;;;;;4882559;29;20040;-88
2021/08/30 02:06:02;;;;;;;8.85;3.22;;;13.30;99.90;;;;;;4882206;29;20044;-89
2021/08/30 02:08:31;;;;;;;5.20;3.08;;;13.30;99.90;;;;;;4882742;29;20040;-89
2021/08/30 02:11:03;;;;;;;7.18;3.55;;;13.30;99.90;;;;;;4882322;29;20127;-89
2021/08/30 02:13:29;;;;;;;8.93;2.95;;;13.30;99.90;;;;;;4882135;29;20055;-89
2021/08/30 02:16:00;;;;;;;4.90;2.63;;;13.30;99.90;;;;;;4882337;29;20071;-89
2021/08/30 02:18:35;;;;;;;7.45;3.20;;;13.20;99.90;;;;;;4882470;29;20525;-88
2021/08/30 02:21:20;;;;;;;7.43;2.83;;;13.20;99.90;;;;;;4881713;29;20458;-89
2021/08/30 02:24:10;;;;;;;6.18;2.72;;;13.20;99.90;;;;;;4881544;29;20491;-89
2021/08/30 02:26:56;;;;;;;10.05;3.33;;;13.20;99.90;;;;;;4881638;29;20032;-89
2021/08/30 02:29:30;;;;;;;5.03;2.60;;;13.20;99.90;;;;;;4868685;29;20065;-89
2021/08/30 02:32:02;;;;;;;5.03;2.55;;;13.20;99.90;;;;;;4882084;29;20044;-89
2021/08/30 02:34:30;;;;;;;6.90;2.63;;;13.20;99.90;;;;;;4881366;29;20504;-88
2021/08/30 02:36:59;;;;;;;4.95;3.10;;;13.20;99.90;;;;;;4881635;29;20461;-88
2021/08/30 02:39:26;;;;;;;8.18;2.83;;;13.20;99.90;;;;;;4882295;29;20190;-89
2021/08/30 02:41:52;;;;;;;8.13;3.15;;;13.20;99.90;;;;;;4882231;29;20112;-88
2021/08/30 02:44:18;;;;;;;6.72;3.22;;;13.20;99.90;;;;;;4882021;29;20037;-89
2021/08/30 02:46:45;;;;;;;11.13;2.95;;;13.20;99.90;;;;;;4881811;29;20029;-88
2021/08/30 02:49:13;;;;;;;5.93;2.50;;;13.10;99.90;;;;;;4881591;29;20520;-89
2021/08/30 02:51:42;;;;;;;6.32;3.05;;;13.10;99.90;;;;;;4881806;29;20051;-89
2021/08/30 02:54:09;;;;;;;9.07;3.25;;;13.10;99.90;;;;;;4885758;29;20040;-89
2021/08/30 02:56:43;;;;;;;6.03;2.92;;;13.10;99.90;;;;;;4883999;29;20029;-89
2021/08/30 02:59:10;;;;;;;12.18;3.13;;;13.10;99.90;;;;;;4882364;29;20527;-88
2021/08/30 03:01:36;;;;;;;10.07;3.00;;;13.10;99.90;;;;;;4894220;29;20092;-88
2021/08/30 03:04:03;;;;;;;5.28;2.67;;;13.00;99.90;;;;;;4903754;29;20037;-88
2021/08/30 03:06:28;;;;;;;6.80;2.95;;;13.00;99.90;;;;;;4904073;29;20100;-89
2021/08/30 03:08:56;;;;;;;7.13;3.22;;;13.00;99.90;;;;;;4908640;29;20032;-89
2021/08/30 03:11:23;;;;;;;9.18;3.30;;;13.00;99.90;;;;;;4908105;29;20044;-88
2021/08/30 03:13:50;;;;;;;7.25;2.85;;;13.00;99.90;;;;;;4902561;29;20060;-89
2021/08/30 03:16:16;;;;;;;9.27;2.70;;;13.00;99.90;;;;;;4890337;29;20033;-89
2021/08/30 03:18:42;;;;;;;6.68;3.13;;;13.00;99.90;;;;;;4888696;29;20116;-89
2021/08/30 03:21:09;;;;;;;6.57;2.83;;;13.00;99.90;;;;;;4888634;29;20044;-89
2021/08/30 03:23:40;;;;;;;5.20;2.88;;;13.00;99.90;;;;;;4891002;29;20040;-89
2021/08/30 03:26:06;;;;;;;6.47;2.85;;;13.00;99.90;;;;;;4886230;29;20028;-89
2021/08/30 03:28:34;;;;;;;11.95;3.55;;;13.00;99.90;;;;;;4886497;29;20032;-89
2021/08/30 03:31:01;;;;;;;10.90;3.67;;;13.00;99.90;;;;;;4886351;29;20028;-90
2021/08/30 03:33:28;;;;;;;7.57;3.50;;;13.00;99.90;;;;;;4885884;29;20084;-89
2021/08/30 03:35:54;;;;;;;10.25;3.28;;;13.00;99.90;;;;;;4901360;29;20507;-89
2021/08/30 03:38:24;;;;;;;8.80;3.40;;;13.00;99.90;;;;;;4885232;29;20380;-89
2021/08/30 03:40:51;;;;;;;7.15;3.15;;;13.00;99.90;;;;;;4885649;29;20040;-89
2021/08/30 03:43:18;;;;;;;11.18;3.08;;;13.00;99.90;;;;;;4885266;29;20088;-89
2021/08/30 03:45:45;;;;;;;7.57;2.97;;;13.00;99.90;;;;;;4885182;29;20434;-88
2021/08/30 03:48:11;;;;;;;6.60;2.72;;;13.00;99.90;;;;;;4885379;29;20056;-89
2021/08/30 03:50:37;;;;;;;8.02;3.45;;;13.00;99.90;;;;;;4885425;29;20025;-89
2021/08/30 03:53:03;;;;;;;6.32;3.80;;;13.00;99.90;;;;;;4885348;29;20048;-89
2021/08/30 03:55:30;;;;;;;11.20;3.25;;;12.90;99.90;;;;;;4885054;29;20490;-88
2021/08/30 03:57:58;;;;;;;6.95;3.13;;;13.00;99.90;;;;;;4885031;29;20033;-89
2021/08/30 04:00:26;;;;;;;8.95;3.47;;;13.00;99.90;;;;;;4884551;29;20499;-88
2021/08/30 04:02:54;;;;;;;12.85;4.05;;;13.00;99.90;;;;;;4884742;29;20059;-89
2021/08/30 04:05:24;;;;;;;9.82;3.17;;;13.00;99.90;;;;;;4901242;29;20028;-89
2021/08/30 04:07:51;;;;;;;7.28;3.00;;;13.00;99.90;;;;;;4884756;29;20036;-88
2021/08/30 04:10:18;;;;;;;7.85;2.70;;;13.00;99.90;;;;;;4884507;29;20040;-88
2021/08/30 04:12:44;;;;;;;6.88;2.88;;;13.00;99.90;;;;;;4884105;29;20052;-89
2021/08/30 04:15:10;;;;;;;7.15;3.33;;;13.00;99.90;;;;;;4883006;29;20035;-88
2021/08/30 04:17:36;;;;;;;7.32;2.90;;;13.00;99.90;;;;;;4884168;29;20040;-89
2021/08/30 04:20:02;;;;;;;6.28;2.95;;;13.00;99.90;;;;;;4883495;29;20045;-88
2021/08/30 04:22:28;;;;;;;6.63;3.10;;;13.00;99.90;;;;;;4883922;29;20087;-88
2021/08/30 04:24:54;;;;;;;8.60;2.95;;;13.00;99.90;;;;;;4883794;29;20063;-89
2021/08/30 04:27:20;;;;;;;5.50;2.90;;;13.00;99.90;;;;;;4883718;29;20024;-88
2021/08/30 04:29:45;;;;;;;5.72;2.65;;;13.00;99.90;;;;;;4883580;29;20032;-88
2021/08/30 04:32:12;;;;;;;9.23;3.22;;;13.00;99.90;;;;;;4883800;29;20120;-89
2021/08/30 04:34:38;;;;;;;4.45;2.70;;;13.00;99.90;;;;;;4883557;29;20035;-88
2021/08/30 04:37:04;;;;;;;11.70;2.53;;;13.00;99.90;;;;;;4883475;29;20033;-88
2021/08/30 04:39:30;;;;;;;11.18;3.60;;;13.00;99.90;;;;;;4883274;29;20036;-89
2021/08/30 04:41:56;;;;;;;5.30;2.72;;;13.00;99.90;;;;;;4883567;29;20047;-88
2021/08/30 04:44:21;;;;;;;4.88;2.75;;;13.00;99.90;;;;;;4883434;29;20033;-88
2021/08/30 04:46:47;;;;;;;6.70;2.58;;;13.00;99.90;;;;;;4899233;29;20036;-88
2021/08/30 04:49:13;;;;;;;7.13;2.60;;;13.00;99.90;;;;;;4883472;29;20040;-88
2021/08/30 04:51:38;;;;;;;6.60;3.00;;;13.00;99.90;;;;;;4883262;29;20067;-88
2021/08/30 04:54:05;;;;;;;6.65;2.67;;;13.00;99.90;;;;;;4883022;29;20036;-89
2021/08/30 04:56:31;;;;;;;6.00;2.58;;;13.00;99.90;;;;;;4883242;29;20084;-88
2021/08/30 04:58:57;;;;;;;8.05;3.83;;;13.00;99.90;;;;;;4882907;29;20044;-88
2021/08/30 05:01:24;;;;;;;7.78;2.97;;;13.00;99.90;;;;;;4883273;29;20063;-89
2021/08/30 05:03:51;;;;;;;8.98;2.80;;;13.00;99.90;;;;;;4883214;29;20432;-87
2021/08/30 05:06:16;;;;;;;7.10;2.92;;;13.00;99.90;;;;;;4883197;29;20029;-88
2021/08/30 05:08:42;;;;;;;7.03;3.08;;;13.00;99.90;;;;;;4882954;29;20482;-88
2021/08/30 05:11:08;;;;;;;7.80;3.05;;;13.00;99.90;;;;;;4882921;29;20029;-88
2021/08/30 05:13:33;;;;;;;10.13;2.80;;;13.00;99.90;;;;;;4882605;29;20403;-88
2021/08/30 05:15:59;;;;;;;8.10;2.90;;;13.00;99.90;;;;;;4882571;29;20029;-88
2021/08/30 05:18:25;;;;;;;6.00;2.85;;;13.00;99.90;;;;;;4882705;29;20063;-88
2021/08/30 05:20:52;;;;;;;9.10;3.20;;;13.00;99.90;;;;;;4882804;29;20078;-88
2021/08/30 05:23:18;;;;;;;8.93;3.25;;;13.00;99.90;;;;;;4882561;29;20055;-89
2021/08/30 05:25:44;;;;;;;7.63;3.08;;;13.00;99.90;;;;;;4882501;29;20475;-88
2021/08/30 05:28:10;;;;;;;3.75;2.90;;;13.00;99.90;;;;;;4882629;29;20483;-89
2021/08/30 05:30:36;;;;;;;8.45;2.80;;;13.00;99.90;;;;;;4882785;29;20036;-89
2021/08/30 05:33:04;;;;;;;6.47;3.17;;;13.00;99.90;;;;;;4882277;29;20029;-88
2021/08/30 05:35:30;;;;;;;6.13;2.88;;;13.00;99.90;;;;;;4882671;29;20032;-89
2021/08/30 05:37:55;;;;;;;6.93;2.95;;;13.00;99.90;;;;;;4882222;29;20044;-88
2021/08/30 05:40:21;;;;;;;6.47;3.20;;;13.00;99.90;;;;;;4882267;29;20092;-88
2021/08/30 05:42:46;;;;;;;9.27;3.17;;;13.00;99.90;;;;;;4881887;29;20036;-88
2021/08/30 05:45:12;;;;;;;7.85;3.22;;;13.00;99.90;;;;;;4882454;29;20096;-87
2021/08/30 05:47:42;;;;;;;12.48;3.35;;;13.00;99.90;;;;;;4882229;29;20097;-89
2021/08/30 05:50:08;;;;;;;8.90;3.58;;;13.00;99.90;;;;;;4881868;29;20024;-87
2021/08/30 05:52:35;;;;;;;14.35;3.65;;;13.00;99.90;;;;;;4882036;29;20043;-89
2021/08/30 05:55:00;;;;;;;7.78;3.60;;;13.10;99.90;;;;;;4881987;29;20032;-88
2021/08/30 05:57:26;;;;;;;7.05;3.20;;;13.10;99.90;;;;;;4881532;29;20029;-89
2021/08/30 05:59:51;;;;;;;7.32;2.90;;;13.10;99.90;;;;;;4881846;29;20037;-89
2021/08/30 06:02:17;;;;;;;8.98;3.25;;;13.10;99.90;;;;;;4881600;29;20029;-89
2021/08/30 06:04:43;;;;;;;9.80;3.65;;;13.10;99.90;;;;;;4881826;29;20075;-89
2021/08/30 06:07:08;;;;;;;9.02;3.30;;;13.10;99.90;;;;;;4898793;29;20111;-89
2021/08/30 06:09:34;;;;;;;4.53;2.42;;;13.10;99.90;;;;;;4881882;29;20039;-88
2021/08/30 06:12:00;;;;;;;6.57;2.85;;;13.10;99.90;;;;;;4881500;29;20135;-88
2021/08/30 06:14:25;;;;;;;5.95;3.28;;;13.10;99.90;;;;;;4881866;29;20084;-88
2021/08/30 06:16:51;;;;;;;7.60;3.08;;;13.10;99.90;;;;;;4881761;29;20092;-89
2021/08/30 06:19:19;;;;;;;8.07;3.30;;;13.10;99.90;;;;;;4881290;29;20037;-89
2021/08/30 06:21:45;;;;;;;5.78;3.38;;;13.10;99.90;;;;;;4881926;29;20040;-88
2021/08/30 06:24:11;;;;;;;6.50;2.85;;;13.10;99.90;;;;;;4881713;29;20036;-88
2021/08/30 06:26:37;;;;;;;5.22;2.88;;;13.10;99.90;;;;;;4883490;29;20124;-88
2021/08/30 06:29:04;;;;;;;7.10;3.33;;;13.10;99.90;;;;;;4882200;29;20063;-88
2021/08/30 06:31:30;;;;;;;7.20;2.92;;;13.10;99.90;;;;;;4882391;29;20578;-87
2021/08/30 06:33:56;;;;;;;8.45;3.40;;;13.10;99.90;;;;;;4882718;29;20032;-88
2021/08/30 06:36:22;;;;;;;12.75;3.25;;;13.20;99.90;;;;;;4882700;29;20093;-91
2021/08/30 06:38:48;;;;;;;6.97;3.90;;;13.10;99.90;;;;;;4883278;29;20032;-88
2021/08/30 06:41:14;;;;;;;8.30;4.05;;;13.10;99.90;;;;;;4886082;29;20037;-89
2021/08/30 06:43:40;;;;;;;11.23;3.80;;;13.20;99.90;;;;;;4885978;29;20172;-88
2021/08/30 06:46:05;;;;;;;11.00;4.50;;;13.20;99.90;;;;;;4885295;29;20028;-88
2021/08/30 06:48:31;;;;;;;8.77;3.40;;;13.20;99.90;;;;;;4883716;29;20383;-89
2021/08/30 06:50:57;;;;;;;5.75;2.50;;;13.20;99.90;;;;;;4885913;29;20032;-88
2021/08/30 06:53:23;;;;;;;6.38;3.33;;;13.20;99.90;;;;;;4885110;29;20032;-88
2021/08/30 06:55:48;;;;;;;11.45;3.25;;;13.20;99.90;;;;;;4885158;29;20039;-89
2021/08/30 06:58:14;;;;;;;6.45;3.15;;;13.20;99.90;;;;;;4885417;29;20086;-89
2021/08/30 07:00:39;;;;;;;7.97;2.97;;;13.30;99.90;;;;;;4885254;29;20047;-89
2021/08/30 07:03:05;;;;;;;6.05;2.92;;;13.30;99.90;;;;;;4885139;29;20115;-89
2021/08/30 07:05:31;;;;;;;9.70;2.88;;;13.30;99.90;;;;;;4884924;29;20032;-89
2021/08/30 07:07:58;;;;;;;7.97;3.00;;;13.30;99.90;;;;;;4884819;29;20036;-89
2021/08/30 07:10:23;;;;;;;6.05;2.85;;;13.40;99.90;;;;;;4884838;29;20032;-88
2021/08/30 07:12:49;;;;;;;4.00;2.38;;;13.50;99.90;;;;;;4885213;29;20052;-88
2021/08/30 07:15:15;;;;;;;3.75;2.47;;;13.40;99.90;;;;;;4885300;29;20025;-89
2021/08/30 07:17:40;;;;;;;8.05;2.88;;;13.50;99.90;;;;;;4885410;29;20029;-89
2021/08/30 07:20:06;;;;;;;4.63;2.22;;;13.50;99.90;;;;;;4885206;29;20196;-89
2021/08/30 07:22:32;;;;;;;10.25;2.83;;;13.60;99.90;;;;;;4885382;29;20088;-89
2021/08/30 07:24:58;;;;;;;7.32;2.75;;;13.60;99.90;;;;;;4885220;29;20055;-89
2021/08/30 07:27:24;;;;;;;7.65;3.13;;;13.70;99.90;;;;;;4885247;29;20033;-89
2021/08/30 07:29:50;;;;;;;5.95;2.13;;;13.70;99.90;;;;;;4885510;29;20075;-88
2021/08/30 07:32:17;;;;;;;10.25;2.70;;;13.70;99.90;;;;;;4885791;29;20076;-89
2021/08/30 07:34:42;;;;;;;6.80;2.85;;;13.70;99.90;;;;;;4886267;29;20028;-88
2021/08/30 07:37:08;;;;;;;7.65;2.92;;;13.80;99.90;;;;;;4903309;29;20096;-90
2021/08/30 07:39:34;;;;;;;6.15;2.22;;;13.80;99.90;;;;;;4918835;29;20045;-88
2021/08/30 07:42:01;;;;;;;5.65;2.85;;;13.80;99.90;;;;;;4903801;29;20040;-89
2021/08/30 07:44:27;;;;;;;9.20;2.78;;;13.80;99.90;;;;;;4902953;29;20064;-89
2021/08/30 07:46:53;;;;;;;6.43;2.55;;;13.90;99.90;;;;;;4905587;29;20012;-88
2021/08/30 07:49:19;;;;;;;9.50;2.67;;;13.90;99.90;;;;;;4913690;29;20067;-88
2021/08/30 07:51:45;;;;;;;6.97;2.85;;;14.00;99.90;;;;;;4893305;29;20052;-88
2021/08/30 07:54:11;;;;;;;7.13;3.15;;;14.00;99.90;;;;;;4892195;29;20096;-89
2021/08/30 07:56:41;;;;;;;8.80;3.00;;;14.00;99.90;;;;;;4906905;29;20064;-88
2021/08/30 07:59:09;;;;;;;9.73;3.43;;;14.00;99.90;;;;;;4888379;29;20048;-88
2021/08/30 08:01:35;;;;;;;7.40;3.42;;;14.10;99.90;;;;;;4888847;29;20403;-88
2021/08/30 08:04:01;;;;;;;7.45;2.80;;;14.10;99.90;;;;;;4887111;29;20032;-88
2021/08/30 08:06:27;;;;;;;7.35;2.47;;;14.20;99.90;;;;;;4886233;29;20036;-88
2021/08/30 08:08:53;;;;;;;5.90;2.90;;;14.20;99.90;;;;;;4885974;29;20025;-88
2021/08/30 08:11:19;;;;;;;7.10;2.67;;;14.20;99.90;;;;;;4886471;29;20387;-89
2021/08/30 08:13:45;;;;;;;7.13;2.65;;;14.30;99.90;;;;;;4885487;29;20051;-89
2021/08/30 08:16:10;;;;;;;6.03;2.65;;;14.20;99.90;;;;;;4885432;29;20036;-88
2021/08/30 08:18:36;;;;;;;7.45;3.08;;;14.30;99.90;;;;;;4885880;29;20028;-88
2021/08/30 08:21:04;;;;;;;7.47;2.80;;;14.40;99.90;;;;;;4885414;29;20037;-89
2021/08/30 08:23:32;;;;;;;5.38;2.60;;;14.40;99.90;;;;;;4885604;29;20035;-88
2021/08/30 08:25:58;;;;;;;6.55;2.80;;;14.50;99.90;;;;;;4885610;29;20032;-89
2021/08/30 08:28:24;;;;;;;9.45;3.28;;;14.50;99.90;;;;;;4885296;29;20496;-88
2021/08/30 08:30:50;;;;;;;8.07;2.92;;;14.50;99.90;;;;;;4885834;29;20483;-88
2021/08/30 08:33:17;;;;;;;8.38;3.10;;;14.50;99.90;;;;;;4885720;29;20506;-89
2021/08/30 08:35:43;;;;;;;5.63;3.10;;;14.60;99.90;;;;;;4885745;29;20032;-90
2021/08/30 08:38:10;;;;;;;7.78;2.80;;;14.60;99.90;;;;;;4885191;29;20092;-89
2021/08/30 08:40:36;;;;;;;8.27;2.80;;;14.60;99.90;;;;;;4884953;29;20822;-89
2021/08/30 08:43:02;;;;;;;14.95;3.85;;;14.70;99.90;;;;;;4884952;29;20032;-89
2021/08/30 08:45:28;;;;;;;5.47;2.63;;;14.70;99.90;;;;;;4885052;29;20024;-89
2021/08/30 08:47:54;;;;;;;11.15;3.28;;;14.70;99.90;;;;;;4884480;29;20040;-88
2021/08/30 08:50:21;;;;;;;11.15;3.45;;;14.80;99.90;;;;;;4884972;29;20032;-91
2021/08/30 08:52:47;;;;;;;7.72;3.28;;;14.70;99.90;;;;;;4884664;29;20036;-89
2021/08/30 08:55:14;;;;;;;5.45;2.63;;;14.70;99.90;;;;;;4884348;29;20479;-89
2021/08/30 08:57:41;;;;;;;8.52;3.15;;;14.70;99.90;;;;;;4884901;29;20501;-89
2021/08/30 09:00:10;;;;;;;7.40;2.90;;;14.70;99.90;;;;;;4883892;29;20040;-89
2021/08/30 09:02:36;;;;;;;4.85;2.55;;;14.70;99.90;;;;;;4883928;29;20145;-89
2021/08/30 09:05:05;;;;;;;6.88;3.00;;;14.80;99.90;;;;;;4883895;29;20037;-89
2021/08/30 09:07:41;;;;;;;6.68;2.75;;;14.80;99.90;;;;;;4884288;29;20029;-89
2021/08/30 09:10:17;;;;;;;8.07;3.03;;;14.90;99.90;;;;;;4884190;29;20559;-89
2021/08/30 09:12:44;;;;;;;6.13;3.03;;;15.00;99.90;;;;;;4883552;29;20052;-89
2021/08/30 09:15:23;;;;;;;5.32;3.05;;;15.10;99.90;;;;;;4884054;29;20040;-89
2021/08/30 09:17:50;;;;;;;8.55;2.60;;;15.20;99.90;;;;;;4884254;29;20027;-89
2021/08/30 09:20:18;;;;;;;7.10;2.40;;;15.30;99.90;;;;;;4883978;29;20069;-89
2021/08/30 09:22:45;;;;;;;8.05;2.65;;;15.40;99.90;;;;;;4883569;29;20025;-89
2021/08/30 09:25:14;;;;;;;4.88;2.63;;;15.50;99.90;;;;;;4883341;29;20040;-89
2021/08/30 09:27:46;;;;;;;4.03;2.10;;;15.60;99.90;;;;;;4883342;29;20028;-88
2021/08/30 09:30:13;;;;;;;6.75;3.10;;;15.70;99.90;;;;;;4883465;29;20025;-88
2021/08/30 09:32:41;;;;;;;6.90;3.08;;;15.80;99.90;;;;;;4883483;29;20020;-90
2021/08/30 09:35:08;;;;;;;6.72;3.58;;;15.80;99.90;;;;;;4883731;29;20033;-89
2021/08/30 09:37:39;;;;;;;6.78;2.95;;;15.80;99.90;;;;;;4884013;29;20040;-89
2021/08/30 09:40:18;;;;;;;6.38;2.80;;;15.80;99.90;;;;;;4898892;29;20047;-90
2021/08/30 09:42:54;;;;;;;8.05;3.42;;;15.80;99.90;;;;;;4883731;29;20029;-89
2021/08/30 09:45:21;;;;;;;12.02;2.90;;;15.80;99.90;;;;;;4882990;29;20028;-89
2021/08/30 09:47:55;;;;;;;4.90;2.92;;;15.80;99.90;;;;;;4883229;29;20152;-89
2021/08/30 09:50:29;;;;;;;10.50;3.10;;;15.90;99.90;;;;;;4883913;29;20029;-89
2021/08/30 09:52:56;;;;;;;7.72;3.00;;;15.90;99.90;;;;;;4883164;29;20036;-89
2021/08/30 09:55:22;;;;;;;7.15;2.83;;;16.00;99.90;;;;;;4883495;29;20036;-89
2021/08/30 09:57:50;;;;;;;4.40;2.60;;;16.10;99.90;;;;;;4882953;29;20028;-90
2021/08/30 10:00:17;;;;;;;7.50;2.85;;;16.10;99.90;;;;;;4900013;29;20367;-89
2021/08/30 10:02:47;;;;;;;4.57;3.00;;;16.10;99.90;;;;;;4883368;29;20057;-89
2021/08/30 10:05:17;;;;;;;6.35;3.00;;;16.10;99.90;;;;;;4883419;29;20036;-89
2021/08/30 10:07:45;;;;;;;5.82;2.97;;;16.10;99.90;;;;;;4883127;29;20546;-89
2021/08/30 10:10:16;;;;;;;5.82;3.63;;;16.10;99.90;;;;;;4882682;29;20037;-88
2021/08/30 10:12:42;;;;;;;8.02;3.17;;;16.20;99.90;;;;;;4882749;29;20057;-88
2021/08/30 10:15:10;;;;;;;6.00;2.97;;;16.20;99.90;;;;;;4886464;29;20103;-89
2021/08/30 10:17:43;;;;;;;4.68;2.92;;;16.20;99.90;;;;;;4887028;29;20036;-89
2021/08/30 10:20:17;;;;;;;5.32;2.85;;;16.20;99.90;;;;;;4886715;29;20104;-90
2021/08/30 10:22:55;;;;;;;8.80;2.97;;;16.20;99.90;;;;;;4886975;29;20036;-89
2021/08/30 10:25:21;;;;;;;4.20;2.42;;;16.20;99.90;;;;;;4886879;29;20183;-90
2021/08/30 10:28:02;;;;;;;7.10;3.13;;;16.10;99.90;;;;;;4886709;29;20036;-89
2021/08/30 10:30:32;;;;;;;;;;;16.10;99.90;;;;;;4887529;29;20033;-88
2021/08/30 10:33:00;;;;;;;5.75;2.90;;;16.10;99.90;;;;;;4886835;29;19959;-88
2021/08/30 10:35:30;;;;;;;7.88;2.95;;;16.10;99.90;;;;;;4885766;29;20503;-87
2021/08/30 10:38:02;;;;;;;5.78;3.20;;;16.10;99.90;;;;;;4902078;29;20028;-88
2021/08/30 10:40:34;;;;;;;6.40;3.60;;;16.10;99.90;;;;;;4886103;29;20045;-88
2021/08/30 10:43:06;;;;;;;6.53;3.10;;;16.10;99.90;;;;;;4886287;29;20028;-89
2021/08/30 10:45:56;;;;;;;6.68;2.65;;;16.10;99.90;;;;;;4886285;29;20031;-88
2021/08/30 10:48:35;;;;;;;4.43;2.53;;;16.10;99.90;;;;;;4886012;29;20024;-88
2021/08/30 10:51:19;;;;;;;4.93;2.13;;;16.10;99.90;;;;;;4886046;29;20200;-90
2021/08/30 10:53:59;;;;;;;3.35;2.03;;;16.10;99.90;;;;;;4885794;29;20048;-88
2021/08/30 10:56:30;;;;;;;6.25;2.33;;;16.10;99.90;;;;;;4885665;29;20035;-88
2021/08/30 10:59:04;;;;;;;2.97;2.38;;;16.10;99.90;;;;;;4885358;29;20081;-89
2021/08/30 11:01:29;;;;;;;4.13;2.40;;;16.10;99.90;;;;;;4902267;29;20483;-89
2021/08/30 11:03:56;;;;;;;7.28;2.53;;;16.10;99.90;;;;;;4885539;29;20055;-89
2021/08/30 11:06:23;;;;;;;4.72;2.13;;;16.10;99.90;;;;;;4885488;29;20028;-88
2021/08/30 11:08:48;;;;;;;3.45;1.80;;;16.00;99.90;;;;;;4885719;29;20037;-89
2021/08/30 11:11:17;;;;;;;2.20;1.60;;;16.00;99.90;;;;;;4885392;29;20435;-88
2021/08/30 11:14:04;;;;;;;4.07;1.52;;;16.10;99.90;;;;;;4885281;29;20056;-89
2021/08/30 11:16:31;;;;;;;3.35;1.63;;;16.10;99.90;;;;;;4885408;29;20029;-90
2021/08/30 11:18:57;;;;;;;4.15;1.77;;;16.10;99.90;;;;;;4884677;29;20043;-89
2021/08/30 11:21:47;;;;;;;1.98;1.25;;;16.10;99.90;;;;;;4885553;29;20056;-89
2021/08/30 11:24:36;;;;;;;5.60;1.60;;;16.30;99.90;;;;;;4884747;29;20020;-90
2021/08/30 11:27:16;;;;;;;5.05;1.48;;;16.30;99.90;;;;;;4884902;29;20036;-89
2021/08/30 11:29:47;;;;;;;5.78;1.80;;;16.50;99.90;;;;;;4885694;29;20028;-89
2021/08/30 11:32:15;;;;;;;2.33;1.92;;;16.60;99.90;;;;;;4886492;29;20033;-90
2021/08/30 11:34:41;;;;;;;4.93;2.17;;;16.60;99.80;;;;;;4885359;29;20033;-89
2021/08/30 11:37:09;;;;;;;3.17;1.80;;;16.70;99.60;;;;;;4885172;29;20059;-90
2021/08/30 11:39:38;;;;;;;2.65;1.70;;;16.70;99.30;;;;;;4885057;29;20072;-90
2021/08/30 11:42:10;;;;;;;2.67;1.50;;;16.80;99.10;;;;;;4884919;29;20021;-90
2021/08/30 11:44:37;;;;;;;3.10;1.63;;;16.90;99.00;;;;;;4884670;29;20043;-90
2021/08/30 11:47:05;;;;;;;2.33;1.52;;;17.00;98.80;;;;;;4885001;29;20025;-90
2021/08/30 11:49:33;;;;;;;3.58;1.98;;;17.20;98.50;;;;;;4885055;29;20067;-89
2021/08/30 11:52:01;;;;;;;3.15;1.60;;;17.30;98.20;;;;;;4884880;29;20037;-89
2021/08/30 11:54:31;;;;;;;1.58;1.45;;;17.30;97.90;;;;;;4884941;29;20029;-90
2021/08/30 11:57:01;;;;;;;3.88;1.70;;;17.40;97.70;;;;;;4885092;29;20037;-91
2021/08/30 11:59:48;;;;;;;1.63;1.45;;;17.40;97.50;;;;;;4885641;29;20084;-90
2021/08/30 12:02:15;;;;;;;2.42;1.33;;;17.40;97.40;;;;;;4884697;29;20045;-90
2021/08/30 12:04:41;;;;;;;2.50;2.13;;;17.40;97.30;;;;;;4884891;29;20502;-90
2021/08/30 12:07:12;;;;;;;3.55;1.85;;;17.40;97.20;;;;;;4885391;29;20033;-92
2021/08/30 12:09:51;;;;;;;3.38;1.50;;;17.30;97.10;;;;;;4878844;29;20033;-91
2021/08/30 12:12:29;;;;;;;5.07;1.30;;;17.30;97.30;;;;;;4891670;29;20057;-90
2021/08/30 12:15:00;;;;;;;2.67;1.35;;;17.30;97.40;;;;;;4893556;29;20025;-91
2021/08/30 12:17:32;;;;;;;5.45;1.50;;;17.30;97.40;;;;;;4892249;29;20579;-92
2021/08/30 12:20:01;;;;;;;2.10;1.40;;;17.30;97.60;;;;;;4899579;29;20035;-91
2021/08/30 12:22:30;;;;;;;2.63;1.40;;;17.20;97.60;;;;;;4901340;29;20037;-91
2021/08/30 12:25:01;;;;;;;2.13;1.10;;;17.20;97.80;;;;;;4919665;29;20066;-91
2021/08/30 12:27:34;;;;;;;2.10;1.15;;;17.10;98.00;;;;;;4920707;29;20042;-90
2021/08/30 12:30:27;;;;;;;2.55;1.35;;;17.10;98.20;;;;;;4919782;29;20040;-92
2021/08/30 12:32:55;;;;;;;2.15;1.50;;;17.10;98.50;;;;;;4915512;29;20041;-91
2021/08/30 12:35:25;;;;;;;3.17;1.55;;;17.10;98.60;;;;;;4896452;29;20459;-92
2021/08/30 12:37:53;;;;;;;4.25;1.90;;;17.10;98.70;;;;;;4902383;29;20036;-91
2021/08/30 12:40:21;;;;;;;4.55;1.52;;;17.20;98.80;;;;;;4901697;29;20036;-90
2021/08/30 12:42:47;;;;;;;4.05;1.75;;;17.20;98.80;;;;;;4903879;29;20517;-90
2021/08/30 12:45:13;;;;;;;4.50;1.83;;;17.30;98.80;;;;;;4900023;29;20115;-90
2021/08/30 12:47:39;;;;;;;3.75;1.65;;;17.30;98.70;;;;;;4900866;29;20033;-91
2021/08/30 12:50:05;;;;;;;2.08;1.30;;;17.40;98.50;;;;;;4900635;29;20088;-90
2021/08/30 12:52:31;;;;;;;3.13;1.42;;;17.40;98.50;;;;;;4900486;29;20052;-89
2021/08/30 12:54:57;;;;;;;2.42;0.98;;;17.40;98.40;;;;;;4883997;29;20436;-89